Temple Terrace, Florida
Current Conditions -  °F | °C
As of 11:55 AM on Monday 22 Dec 2014 (Local Time) from KVDF Reporting Station
Scattered Clouds Scattered Clouds  
Wind Chill: 77°   Ceiling: Unl
Heat Index: 79°   Visibility: 10mi
Dew Point: 68°   Wind: 8mph
Humidity: 74%   Direction: 200°SSW
Pressure: 29.99"   Gusts: NA
Location:  28.05°N, 82.39°W
Report Text: KVDF 221655Z AUTO 20007KT 10SM SCT016 25/20 A2999 RMK AO2
Loading
Personal Weather Stations






























Interactive Weather Map New forecast layout! Learn more

10-Day Weather Forecast

Advertisements
Track Severe Weather on mobile